sensor_id;sensor_type;location;lat;lon;timestamp;temperature;humidity
22379;DHT22;11357;49.990;7.370;2023-03-01T00:01:55;2.00;67.40
22379;DHT22;11357;49.990;7.370;2023-03-01T00:04:21;2.00;67.60
22379;DHT22;11357;49.990;7.370;2023-03-01T00:06:47;2.00;67.70
22379;DHT22;11357;49.990;7.370;2023-03-01T00:09:14;2.00;67.90
22379;DHT22;11357;49.990;7.370;2023-03-01T00:11:40;1.90;68.10
22379;DHT22;11357;49.990;7.370;2023-03-01T00:14:05;1.90;68.20
22379;DHT22;11357;49.990;7.370;2023-03-01T00:16:36;1.90;68.20
22379;DHT22;11357;49.990;7.370;2023-03-01T00:19:04;1.90;68.40
22379;DHT22;11357;49.990;7.370;2023-03-01T00:21:29;1.90;68.40
22379;DHT22;11357;49.990;7.370;2023-03-01T00:23:55;1.90;68.40
22379;DHT22;11357;49.990;7.370;2023-03-01T00:26:22;1.90;68.40
22379;DHT22;11357;49.990;7.370;2023-03-01T00:28:49;2.00;68.40
22379;DHT22;11357;49.990;7.370;2023-03-01T00:31:17;1.90;68.40
22379;DHT22;11357;49.990;7.370;2023-03-01T00:33:44;1.90;68.40
22379;DHT22;11357;49.990;7.370;2023-03-01T00:36:11;1.90;68.40
22379;DHT22;11357;49.990;7.370;2023-03-01T00:38:41;1.90;68.40
22379;DHT22;11357;49.990;7.370;2023-03-01T00:41:10;1.90;68.40
22379;DHT22;11357;49.990;7.370;2023-03-01T00:43:36;1.90;68.40
22379;DHT22;11357;49.990;7.370;2023-03-01T00:46:14;1.90;68.40
22379;DHT22;11357;49.990;7.370;2023-03-01T00:48:41;2.00;68.40
22379;DHT22;11357;49.990;7.370;2023-03-01T00:51:21;2.00;68.30
22379;DHT22;11357;49.990;7.370;2023-03-01T00:53:49;2.00;68.30
22379;DHT22;11357;49.990;7.370;2023-03-01T00:56:15;2.00;68.20
22379;DHT22;11357;49.990;7.370;2023-03-01T00:58:41;2.00;68.30
22379;DHT22;11357;49.990;7.370;2023-03-01T01:01:09;2.00;68.40
22379;DHT22;11357;49.990;7.370;2023-03-01T01:03:46;2.00;68.30
22379;DHT22;11357;49.990;7.370;2023-03-01T01:06:25;2.00;69.00
22379;DHT22;11357;49.990;7.370;2023-03-01T01:34:52;2.10;68.30
22379;DHT22;11357;49.990;7.370;2023-03-01T01:37:18;2.00;68.40
22379;DHT22;11357;49.990;7.370;2023-03-01T01:39:44;2.00;68.40
22379;DHT22;11357;49.990;7.370;2023-03-01T01:42:15;2.00;68.40
22379;DHT22;11357;49.990;7.370;2023-03-01T01:44:42;2.00;68.50
22379;DHT22;11357;49.990;7.370;2023-03-01T01:47:21;2.00;68.50
22379;DHT22;11357;49.990;7.370;2023-03-01T01:49:53;2.00;68.50
22379;DHT22;11357;49.990;7.370;2023-03-01T01:52:25;2.00;68.50
22379;DHT22;11357;49.990;7.370;2023-03-01T01:57:40;2.00;68.60
22379;DHT22;11357;49.990;7.370;2023-03-01T02:00:14;1.90;68.70
22379;DHT22;11357;49.990;7.370;2023-03-01T02:02:41;1.90;68.80
22379;DHT22;11357;49.990;7.370;2023-03-01T02:07:59;1.80;69.10
22379;DHT22;11357;49.990;7.370;2023-03-01T02:10:25;1.70;70.00
22379;DHT22;11357;49.990;7.370;2023-03-01T02:12:53;1.70;69.70
22379;DHT22;11357;49.990;7.370;2023-03-01T02:15:19;1.70;70.20
22379;DHT22;11357;49.990;7.370;2023-03-01T02:17:45;1.70;70.10
22379;DHT22;11357;49.990;7.370;2023-03-01T02:20:25;1.70;70.20
22379;DHT22;11357;49.990;7.370;2023-03-01T02:22:53;1.70;70.40
22379;DHT22;11357;49.990;7.370;2023-03-01T02:28:40;1.70;70.20
22379;DHT22;11357;49.990;7.370;2023-03-01T02:31:10;1.80;70.10
22379;DHT22;11357;49.990;7.370;2023-03-01T02:33:54;1.80;70.10
22379;DHT22;11357;49.990;7.370;2023-03-01T02:36:28;1.80;70.20
22379;DHT22;11357;49.990;7.370;2023-03-01T02:38:57;1.70;70.20
22379;DHT22;11357;49.990;7.370;2023-03-01T02:41:24;1.80;70.30
22379;DHT22;11357;49.990;7.370;2023-03-01T02:43:50;1.70;70.30
22379;DHT22;11357;49.990;7.370;2023-03-01T02:46:19;1.70;70.50
22379;DHT22;11357;49.990;7.370;2023-03-01T02:48:50;1.60;70.90
22379;DHT22;11357;49.990;7.370;2023-03-01T02:51:43;1.50;71.40
22379;DHT22;11357;49.990;7.370;2023-03-01T02:56:36;1.40;72.10
22379;DHT22;11357;49.990;7.370;2023-03-01T02:59:02;1.30;72.50
22379;DHT22;11357;49.990;7.370;2023-03-01T03:01:29;1.30;72.80
22379;DHT22;11357;49.990;7.370;2023-03-01T03:04:09;1.30;73.10
22379;DHT22;11357;49.990;7.370;2023-03-01T03:06:35;1.20;73.20
22379;DHT22;11357;49.990;7.370;2023-03-01T03:09:02;1.30;73.30
22379;DHT22;11357;49.990;7.370;2023-03-01T03:11:27;1.30;73.20
22379;DHT22;11357;49.990;7.370;2023-03-01T03:13:53;1.30;73.10
22379;DHT22;11357;49.990;7.370;2023-03-01T03:16:20;1.30;73.10
22379;DHT22;11357;49.990;7.370;2023-03-01T03:18:46;1.40;73.10
22379;DHT22;11357;49.990;7.370;2023-03-01T03:21:12;1.40;73.70
22379;DHT22;11357;49.990;7.370;2023-03-01T03:23:38;1.50;73.70
22379;DHT22;11357;49.990;7.370;2023-03-01T03:26:05;1.50;72.90
22379;DHT22;11357;49.990;7.370;2023-03-01T03:28:32;1.50;72.90
22379;DHT22;11357;49.990;7.370;2023-03-01T03:30:58;1.50;72.90
22379;DHT22;11357;49.990;7.370;2023-03-01T03:33:32;1.50;72.80
22379;DHT22;11357;49.990;7.370;2023-03-01T03:35:57;1.60;72.90
22379;DHT22;11357;49.990;7.370;2023-03-01T03:38:23;1.60;72.80
22379;DHT22;11357;49.990;7.370;2023-03-01T03:41:03;1.70;72.70
22379;DHT22;11357;49.990;7.370;2023-03-01T03:43:32;1.70;72.50
22379;DHT22;11357;49.990;7.370;2023-03-01T03:45:58;1.70;72.30
22379;DHT22;11357;49.990;7.370;2023-03-01T03:48:24;1.80;72.30
22379;DHT22;11357;49.990;7.370;2023-03-01T03:50:52;1.80;72.10
22379;DHT22;11357;49.990;7.370;2023-03-01T03:53:18;1.80;72.00
22379;DHT22;11357;49.990;7.370;2023-03-01T03:55:44;1.80;71.90
22379;DHT22;11357;49.990;7.370;2023-03-01T03:58:10;1.80;72.50
22379;DHT22;11357;49.990;7.370;2023-03-01T04:00:44;1.90;71.90
22379;DHT22;11357;49.990;7.370;2023-03-01T04:03:11;1.90;71.70
22379;DHT22;11357;49.990;7.370;2023-03-01T04:05:39;1.90;71.60
22379;DHT22;11357;49.990;7.370;2023-03-01T04:08:05;1.90;71.60
22379;DHT22;11357;49.990;7.370;2023-03-01T04:10:43;1.90;71.50
22379;DHT22;11357;49.990;7.370;2023-03-01T04:13:13;1.90;71.60
22379;DHT22;11357;49.990;7.370;2023-03-01T04:15:40;1.80;71.50
22379;DHT22;11357;49.990;7.370;2023-03-01T04:18:06;1.80;71.60
22379;DHT22;11357;49.990;7.370;2023-03-01T04:20:34;1.80;71.60
22379;DHT22;11357;49.990;7.370;2023-03-01T04:23:04;1.80;71.60
22379;DHT22;11357;49.990;7.370;2023-03-01T04:25:40;1.80;71.60
22379;DHT22;11357;49.990;7.370;2023-03-01T04:28:07;1.70;71.60
22379;DHT22;11357;49.990;7.370;2023-03-01T04:30:33;1.80;71.70
22379;DHT22;11357;49.990;7.370;2023-03-01T04:33:05;1.80;71.70
22379;DHT22;11357;49.990;7.370;2023-03-01T04:35:32;1.70;71.70
22379;DHT22;11357;49.990;7.370;2023-03-01T04:37:58;1.70;71.70
22379;DHT22;11357;49.990;7.370;2023-03-01T04:40:24;1.70;71.60
22379;DHT22;11357;49.990;7.370;2023-03-01T04:42:50;1.70;71.60
22379;DHT22;11357;49.990;7.370;2023-03-01T04:45:16;1.70;71.70
22379;DHT22;11357;49.990;7.370;2023-03-01T04:47:43;1.70;71.80
22379;DHT22;11357;49.990;7.370;2023-03-01T04:50:11;1.70;71.90
22379;DHT22;11357;49.990;7.370;2023-03-01T04:52:37;1.60;71.70
22379;DHT22;11357;49.990;7.370;2023-03-01T04:55:03;1.60;71.80
22379;DHT22;11357;49.990;7.370;2023-03-01T04:57:30;1.60;71.90
22379;DHT22;11357;49.990;7.370;2023-03-01T04:59:56;1.60;71.90
22379;DHT22;11357;49.990;7.370;2023-03-01T05:02:21;1.60;71.90
22379;DHT22;11357;49.990;7.370;2023-03-01T05:04:47;1.50;71.90
22379;DHT22;11357;49.990;7.370;2023-03-01T05:07:13;1.60;72.00
22379;DHT22;11357;49.990;7.370;2023-03-01T05:09:47;1.60;72.00
22379;DHT22;11357;49.990;7.370;2023-03-01T05:12:14;1.60;72.00
22379;DHT22;11357;49.990;7.370;2023-03-01T05:14:40;1.60;72.00
22379;DHT22;11357;49.990;7.370;2023-03-01T05:17:06;1.50;72.10
22379;DHT22;11357;49.990;7.370;2023-03-01T05:19:32;1.50;72.20
22379;DHT22;11357;49.990;7.370;2023-03-01T05:21:58;1.50;72.20
22379;DHT22;11357;49.990;7.370;2023-03-01T05:24:28;1.50;72.20
22379;DHT22;11357;49.990;7.370;2023-03-01T05:26:54;1.50;72.20
22379;DHT22;11357;49.990;7.370;2023-03-01T05:29:24;1.40;72.30
22379;DHT22;11357;49.990;7.370;2023-03-01T05:31:57;1.40;72.40
22379;DHT22;11357;49.990;7.370;2023-03-01T05:34:28;1.40;72.40
22379;DHT22;11357;49.990;7.370;2023-03-01T05:36:54;1.30;73.20
22379;DHT22;11357;49.990;7.370;2023-03-01T05:39:25;1.30;72.60
22379;DHT22;11357;49.990;7.370;2023-03-01T05:41:58;1.20;72.90
22379;DHT22;11357;49.990;7.370;2023-03-01T05:44:27;1.20;73.00
22379;DHT22;11357;49.990;7.370;2023-03-01T05:46:53;1.20;73.10
22379;DHT22;11357;49.990;7.370;2023-03-01T05:49:19;1.20;73.20
22379;DHT22;11357;49.990;7.370;2023-03-01T05:51:51;1.20;73.30
22379;DHT22;11357;49.990;7.370;2023-03-01T05:54:17;1.20;73.30
22379;DHT22;11357;49.990;7.370;2023-03-01T05:56:44;1.20;73.30
22379;DHT22;11357;49.990;7.370;2023-03-01T05:59:10;1.20;73.30
22379;DHT22;11357;49.990;7.370;2023-03-01T06:01:36;1.20;73.30
22379;DHT22;11357;49.990;7.370;2023-03-01T06:04:02;1.10;73.30
22379;DHT22;11357;49.990;7.370;2023-03-01T06:06:28;1.10;73.30
22379;DHT22;11357;49.990;7.370;2023-03-01T06:08:54;1.20;73.30
22379;DHT22;11357;49.990;7.370;2023-03-01T06:11:20;1.20;73.30
22379;DHT22;11357;49.990;7.370;2023-03-01T06:13:47;1.20;73.20
22379;DHT22;11357;49.990;7.370;2023-03-01T06:16:13;1.20;73.20
22379;DHT22;11357;49.990;7.370;2023-03-01T06:18:39;1.20;73.20
22379;DHT22;11357;49.990;7.370;2023-03-01T06:21:06;1.20;73.10
22379;DHT22;11357;49.990;7.370;2023-03-01T06:23:32;1.30;73.00
22379;DHT22;11357;49.990;7.370;2023-03-01T06:25:58;1.30;73.00
22379;DHT22;11357;49.990;7.370;2023-03-01T06:28:24;1.30;72.90
22379;DHT22;11357;49.990;7.370;2023-03-01T06:30:50;1.30;72.80
22379;DHT22;11357;49.990;7.370;2023-03-01T06:33:17;1.30;72.80
22379;DHT22;11357;49.990;7.370;2023-03-01T06:35:46;1.30;72.90
22379;DHT22;11357;49.990;7.370;2023-03-01T06:38:11;1.30;72.90
22379;DHT22;11357;49.990;7.370;2023-03-01T06:40:40;1.30;72.90
22379;DHT22;11357;49.990;7.370;2023-03-01T06:43:06;1.40;72.80
22379;DHT22;11357;49.990;7.370;2023-03-01T06:45:33;1.40;72.70
22379;DHT22;11357;49.990;7.370;2023-03-01T06:48:04;1.40;72.70
22379;DHT22;11357;49.990;7.370;2023-03-01T06:50:30;1.50;72.60
22379;DHT22;11357;49.990;7.370;2023-03-01T06:52:56;1.50;72.50
22379;DHT22;11357;49.990;7.370;2023-03-01T06:55:23;1.50;72.60
22379;DHT22;11357;49.990;7.370;2023-03-01T06:57:48;1.50;72.60
22379;DHT22;11357;49.990;7.370;2023-03-01T07:00:14;1.50;72.60
22379;DHT22;11357;49.990;7.370;2023-03-01T07:02:40;1.40;72.70
22379;DHT22;11357;49.990;7.370;2023-03-01T07:05:07;1.40;72.80
22379;DHT22;11357;49.990;7.370;2023-03-01T07:07:32;1.30;72.90
22379;DHT22;11357;49.990;7.370;2023-03-01T07:09:58;1.30;73.10
22379;DHT22;11357;49.990;7.370;2023-03-01T07:12:24;1.30;73.30
22379;DHT22;11357;49.990;7.370;2023-03-01T07:14:49;1.30;73.40
22379;DHT22;11357;49.990;7.370;2023-03-01T07:17:15;1.30;73.50
22379;DHT22;11357;49.990;7.370;2023-03-01T07:19:41;1.30;73.70
22379;DHT22;11357;49.990;7.370;2023-03-01T07:22:06;1.30;73.80
22379;DHT22;11357;49.990;7.370;2023-03-01T07:24:33;1.30;73.90
22379;DHT22;11357;49.990;7.370;2023-03-01T07:26:59;1.40;73.90
22379;DHT22;11357;49.990;7.370;2023-03-01T07:29:25;1.40;74.00
22379;DHT22;11357;49.990;7.370;2023-03-01T07:31:50;1.40;74.00
22379;DHT22;11357;49.990;7.370;2023-03-01T07:34:16;1.50;74.60
22379;DHT22;11357;49.990;7.370;2023-03-01T07:36:42;1.50;73.90
22379;DHT22;11357;49.990;7.370;2023-03-01T07:39:10;1.60;73.80
22379;DHT22;11357;49.990;7.370;2023-03-01T07:41:35;1.60;74.40
22379;DHT22;11357;49.990;7.370;2023-03-01T07:44:01;1.70;73.70
22379;DHT22;11357;49.990;7.370;2023-03-01T07:46:27;1.80;73.60
22379;DHT22;11357;49.990;7.370;2023-03-01T08:04:24;2.30;72.90
22379;DHT22;11357;49.990;7.370;2023-03-01T08:06:53;2.30;73.00
22379;DHT22;11357;49.990;7.370;2023-03-01T08:09:19;2.30;72.90
22379;DHT22;11357;49.990;7.370;2023-03-01T08:11:44;2.40;72.80
22379;DHT22;11357;49.990;7.370;2023-03-01T08:14:10;2.40;72.80
22379;DHT22;11357;49.990;7.370;2023-03-01T08:16:36;2.40;72.60
22379;DHT22;11357;49.990;7.370;2023-03-01T08:19:10;2.40;72.50
22379;DHT22;11357;49.990;7.370;2023-03-01T08:21:36;2.50;72.60
22379;DHT22;11357;49.990;7.370;2023-03-01T08:24:03;2.60;72.30
22379;DHT22;11357;49.990;7.370;2023-03-01T08:26:29;2.70;72.20
22379;DHT22;11357;49.990;7.370;2023-03-01T08:28:55;3.00;72.00
22379;DHT22;11357;49.990;7.370;2023-03-01T08:31:28;3.20;71.50
22379;DHT22;11357;49.990;7.370;2023-03-01T08:33:57;3.30;71.10
22379;DHT22;11357;49.990;7.370;2023-03-01T08:36:32;3.50;70.70
22379;DHT22;11357;49.990;7.370;2023-03-01T08:38:59;3.70;70.40
22379;DHT22;11357;49.990;7.370;2023-03-01T08:41:25;3.90;70.00
22379;DHT22;11357;49.990;7.370;2023-03-01T08:43:51;4.10;69.70
22379;DHT22;11357;49.990;7.370;2023-03-01T08:46:18;4.40;69.20
22379;DHT22;11357;49.990;7.370;2023-03-01T08:48:44;4.70;68.80
22379;DHT22;11357;49.990;7.370;2023-03-01T08:51:10;4.90;68.30
22379;DHT22;11357;49.990;7.370;2023-03-01T08:53:36;5.20;67.80
22379;DHT22;11357;49.990;7.370;2023-03-01T08:56:02;5.50;67.10
22379;DHT22;11357;49.990;7.370;2023-03-01T08:58:28;6.00;66.60
22379;DHT22;11357;49.990;7.370;2023-03-01T09:00:54;6.50;65.40
22379;DHT22;11357;49.990;7.370;2023-03-01T09:03:22;6.90;64.50
22379;DHT22;11357;49.990;7.370;2023-03-01T09:05:48;7.30;63.50
22379;DHT22;11357;49.990;7.370;2023-03-01T09:08:16;7.50;62.10
22379;DHT22;11357;49.990;7.370;2023-03-01T09:10:41;7.60;61.30
22379;DHT22;11357;49.990;7.370;2023-03-01T09:13:08;7.70;60.30
22379;DHT22;11357;49.990;7.370;2023-03-01T09:15:33;7.80;60.00
22379;DHT22;11357;49.990;7.370;2023-03-01T09:17:59;7.80;60.00
22379;DHT22;11357;49.990;7.370;2023-03-01T09:20:25;8.10;59.70
22379;DHT22;11357;49.990;7.370;2023-03-01T09:22:51;8.20;59.40
22379;DHT22;11357;49.990;7.370;2023-03-01T09:25:16;8.40;58.70
22379;DHT22;11357;49.990;7.370;2023-03-01T09:27:42;8.50;58.50
22379;DHT22;11357;49.990;7.370;2023-03-01T09:30:08;8.60;57.70
22379;DHT22;11357;49.990;7.370;2023-03-01T09:32:34;8.60;57.30
22379;DHT22;11357;49.990;7.370;2023-03-01T09:35:00;8.70;57.10
22379;DHT22;11357;49.990;7.370;2023-03-01T09:37:32;8.70;57.00
22379;DHT22;11357;49.990;7.370;2023-03-01T09:39:58;8.90;56.90
22379;DHT22;11357;49.990;7.370;2023-03-01T09:42:24;9.10;56.00
22379;DHT22;11357;49.990;7.370;2023-03-01T09:45:04;9.20;56.10
22379;DHT22;11357;49.990;7.370;2023-03-01T09:47:34;9.40;55.50
22379;DHT22;11357;49.990;7.370;2023-03-01T09:50:16;9.50;55.10
22379;DHT22;11357;49.990;7.370;2023-03-01T09:53:09;9.70;55.00
22379;DHT22;11357;49.990;7.370;2023-03-01T10:00:47;10.20;53.60
22379;DHT22;11357;49.990;7.370;2023-03-01T10:05:59;10.10;53.40
22379;DHT22;11357;49.990;7.370;2023-03-01T10:08:43;9.90;53.30
22379;DHT22;11357;49.990;7.370;2023-03-01T10:11:21;9.80;53.20
22379;DHT22;11357;49.990;7.370;2023-03-01T10:16:46;10.00;53.90
22379;DHT22;11357;49.990;7.370;2023-03-01T10:53:01;11.60;50.40
22379;DHT22;11357;49.990;7.370;2023-03-01T10:55:33;12.00;50.20
22379;DHT22;11357;49.990;7.370;2023-03-01T10:58:20;12.10;49.40
22379;DHT22;11357;49.990;7.370;2023-03-01T11:00:55;12.10;49.50
22379;DHT22;11357;49.990;7.370;2023-03-01T11:03:36;12.30;49.30
22379;DHT22;11357;49.990;7.370;2023-03-01T11:08:40;13.10;48.00
22379;DHT22;11357;49.990;7.370;2023-03-01T11:13:35;13.30;47.50
22379;DHT22;11357;49.990;7.370;2023-03-01T11:16:07;13.30;47.50
22379;DHT22;11357;49.990;7.370;2023-03-01T11:18:35;13.40;47.40
22379;DHT22;11357;49.990;7.370;2023-03-01T11:21:01;13.20;46.30
22379;DHT22;11357;49.990;7.370;2023-03-01T11:23:29;12.90;46.50
22379;DHT22;11357;49.990;7.370;2023-03-01T11:25:58;12.80;46.90
22379;DHT22;11357;49.990;7.370;2023-03-01T11:28:27;12.70;46.80
22379;DHT22;11357;49.990;7.370;2023-03-01T11:31:09;12.70;46.60
22379;DHT22;11357;49.990;7.370;2023-03-01T11:33:48;12.60;46.60
22379;DHT22;11357;49.990;7.370;2023-03-01T11:38:44;12.70;47.30
22379;DHT22;11357;49.990;7.370;2023-03-01T11:41:25;12.60;47.10
22379;DHT22;11357;49.990;7.370;2023-03-01T11:56:55;12.40;47.80
22379;DHT22;11357;49.990;7.370;2023-03-01T11:59:33;12.50;47.90
22379;DHT22;11357;49.990;7.370;2023-03-01T12:21:03;12.20;48.20
22379;DHT22;11357;49.990;7.370;2023-03-01T12:29:30;12.90;48.00
22379;DHT22;11357;49.990;7.370;2023-03-01T12:46:15;12.90;46.70
22379;DHT22;11357;49.990;7.370;2023-03-01T12:51:44;12.60;47.10
22379;DHT22;11357;49.990;7.370;2023-03-01T12:54:16;12.50;47.40
22379;DHT22;11357;49.990;7.370;2023-03-01T12:56:46;12.40;47.20
22379;DHT22;11357;49.990;7.370;2023-03-01T12:59:47;12.30;47.20
22379;DHT22;11357;49.990;7.370;2023-03-01T13:02:30;12.40;47.30
22379;DHT22;11357;49.990;7.370;2023-03-01T13:05:18;12.60;47.20
22379;DHT22;11357;49.990;7.370;2023-03-01T13:10:34;12.80;46.80
22379;DHT22;11357;49.990;7.370;2023-03-01T13:15:37;12.50;46.50
22379;DHT22;11357;49.990;7.370;2023-03-01T13:20:55;12.30;47.50
22379;DHT22;11357;49.990;7.370;2023-03-01T13:33:50;13.10;46.40
22379;DHT22;11357;49.990;7.370;2023-03-01T13:46:45;13.00;46.40
22379;DHT22;11357;49.990;7.370;2023-03-01T13:49:20;13.00;46.00
22379;DHT22;11357;49.990;7.370;2023-03-01T13:51:47;12.80;46.20
22379;DHT22;11357;49.990;7.370;2023-03-01T13:54:15;12.70;46.20
22379;DHT22;11357;49.990;7.370;2023-03-01T13:56:42;12.50;46.60
22379;DHT22;11357;49.990;7.370;2023-03-01T13:59:17;12.50;46.70
22379;DHT22;11357;49.990;7.370;2023-03-01T14:01:43;12.50;46.60
22379;DHT22;11357;49.990;7.370;2023-03-01T14:04:35;12.50;46.40
22379;DHT22;11357;49.990;7.370;2023-03-01T14:07:16;12.60;46.70
22379;DHT22;11357;49.990;7.370;2023-03-01T14:09:44;12.60;46.50
22379;DHT22;11357;49.990;7.370;2023-03-01T14:12:43;12.50;46.20
22379;DHT22;11357;49.990;7.370;2023-03-01T14:15:33;12.20;46.60
22379;DHT22;11357;49.990;7.370;2023-03-01T14:20:47;12.10;46.40
22379;DHT22;11357;49.990;7.370;2023-03-01T14:23:20;12.00;46.50
22379;DHT22;11357;49.990;7.370;2023-03-01T14:25:51;12.00;46.30
22379;DHT22;11357;49.990;7.370;2023-03-01T14:28:21;12.10;46.40
22379;DHT22;11357;49.990;7.370;2023-03-01T14:30:52;12.00;45.60
22379;DHT22;11357;49.990;7.370;2023-03-01T14:33:34;12.00;45.80
22379;DHT22;11357;49.990;7.370;2023-03-01T14:36:04;11.90;46.20
22379;DHT22;11357;49.990;7.370;2023-03-01T14:38:37;11.90;46.00
22379;DHT22;11357;49.990;7.370;2023-03-01T14:41:23;11.90;45.80
22379;DHT22;11357;49.990;7.370;2023-03-01T14:43:56;11.80;45.80
22379;DHT22;11357;49.990;7.370;2023-03-01T14:46:30;11.80;45.60
22379;DHT22;11357;49.990;7.370;2023-03-01T14:49:19;11.70;45.50
22379;DHT22;11357;49.990;7.370;2023-03-01T14:56:48;11.50;46.30
22379;DHT22;11357;49.990;7.370;2023-03-01T14:59:13;11.50;46.30
22379;DHT22;11357;49.990;7.370;2023-03-01T15:01:41;11.40;45.70
22379;DHT22;11357;49.990;7.370;2023-03-01T15:04:11;11.30;45.70
22379;DHT22;11357;49.990;7.370;2023-03-01T15:06:38;11.20;45.80
22379;DHT22;11357;49.990;7.370;2023-03-01T15:09:04;11.10;45.90
22379;DHT22;11357;49.990;7.370;2023-03-01T15:11:32;11.10;46.30
22379;DHT22;11357;49.990;7.370;2023-03-01T15:13:59;11.20;46.50
22379;DHT22;11357;49.990;7.370;2023-03-01T15:16:27;11.30;46.80
22379;DHT22;11357;49.990;7.370;2023-03-01T15:18:56;11.30;46.50
22379;DHT22;11357;49.990;7.370;2023-03-01T15:21:25;11.20;46.60
22379;DHT22;11357;49.990;7.370;2023-03-01T15:24:37;11.00;46.70
22379;DHT22;11357;49.990;7.370;2023-03-01T15:26:58;10.90;46.40
22379;DHT22;11357;49.990;7.370;2023-03-01T15:29:28;10.60;46.30
22379;DHT22;11357;49.990;7.370;2023-03-01T15:32:27;10.50;46.80
22379;DHT22;11357;49.990;7.370;2023-03-01T15:34:51;10.40;47.10
22379;DHT22;11357;49.990;7.370;2023-03-01T15:37:40;10.40;47.00
22379;DHT22;11357;49.990;7.370;2023-03-01T15:42:43;10.30;47.00
22379;DHT22;11357;49.990;7.370;2023-03-01T15:48:15;10.30;47.80
22379;DHT22;11357;49.990;7.370;2023-03-01T15:50:42;10.30;47.30
22379;DHT22;11357;49.990;7.370;2023-03-01T15:53:13;10.30;47.20
22379;DHT22;11357;49.990;7.370;2023-03-01T15:55:41;10.20;47.10
22379;DHT22;11357;49.990;7.370;2023-03-01T15:58:13;10.20;47.30
22379;DHT22;11357;49.990;7.370;2023-03-01T16:00:40;10.10;47.40
22379;DHT22;11357;49.990;7.370;2023-03-01T16:03:06;10.00;47.50
22379;DHT22;11357;49.990;7.370;2023-03-01T16:05:35;10.00;47.40
22379;DHT22;11357;49.990;7.370;2023-03-01T16:08:03;10.00;47.50
22379;DHT22;11357;49.990;7.370;2023-03-01T16:10:31;9.90;47.50
22379;DHT22;11357;49.990;7.370;2023-03-01T16:12:57;9.70;47.40
22379;DHT22;11357;49.990;7.370;2023-03-01T16:15:27;9.60;47.60
22379;DHT22;11357;49.990;7.370;2023-03-01T16:17:53;9.60;47.90
22379;DHT22;11357;49.990;7.370;2023-03-01T16:20:19;9.50;48.00
22379;DHT22;11357;49.990;7.370;2023-03-01T16:22:46;9.40;48.40
22379;DHT22;11357;49.990;7.370;2023-03-01T16:25:16;9.30;48.40
22379;DHT22;11357;49.990;7.370;2023-03-01T16:27:44;9.30;48.50
22379;DHT22;11357;49.990;7.370;2023-03-01T16:30:11;9.20;48.60
22379;DHT22;11357;49.990;7.370;2023-03-01T16:32:38;9.10;48.70
22379;DHT22;11357;49.990;7.370;2023-03-01T16:35:05;8.90;48.80
22379;DHT22;11357;49.990;7.370;2023-03-01T16:37:32;8.80;49.10
22379;DHT22;11357;49.990;7.370;2023-03-01T16:39:58;8.70;49.40
22379;DHT22;11357;49.990;7.370;2023-03-01T16:42:25;8.60;49.70
22379;DHT22;11357;49.990;7.370;2023-03-01T16:44:56;8.60;49.90
22379;DHT22;11357;49.990;7.370;2023-03-01T16:47:22;8.50;49.90
22379;DHT22;11357;49.990;7.370;2023-03-01T16:49:52;8.40;50.00
22379;DHT22;11357;49.990;7.370;2023-03-01T16:52:18;8.40;50.20
22379;DHT22;11357;49.990;7.370;2023-03-01T16:54:44;8.30;50.30
22379;DHT22;11357;49.990;7.370;2023-03-01T16:57:10;8.30;50.30
22379;DHT22;11357;49.990;7.370;2023-03-01T16:59:35;8.20;50.50
22379;DHT22;11357;49.990;7.370;2023-03-01T17:02:03;8.20;50.60
22379;DHT22;11357;49.990;7.370;2023-03-01T17:04:29;8.10;50.60
22379;DHT22;11357;49.990;7.370;2023-03-01T17:06:54;8.10;50.80
22379;DHT22;11357;49.990;7.370;2023-03-01T17:48:04;7.10;52.90
22379;DHT22;11357;49.990;7.370;2023-03-01T17:50:30;7.00;53.00
22379;DHT22;11357;49.990;7.370;2023-03-01T17:52:55;7.00;53.20
22379;DHT22;11357;49.990;7.370;2023-03-01T17:55:21;6.90;53.20
22379;DHT22;11357;49.990;7.370;2023-03-01T17:57:47;6.90;53.50
22379;DHT22;11357;49.990;7.370;2023-03-01T18:00:14;6.80;53.50
22379;DHT22;11357;49.990;7.370;2023-03-01T18:02:41;6.80;53.60
22379;DHT22;11357;49.990;7.370;2023-03-01T18:05:08;6.80;53.60
22379;DHT22;11357;49.990;7.370;2023-03-01T18:07:34;6.80;53.60
22379;DHT22;11357;49.990;7.370;2023-03-01T18:10:00;6.80;53.60
22379;DHT22;11357;49.990;7.370;2023-03-01T18:12:25;6.80;53.60
22379;DHT22;11357;49.990;7.370;2023-03-01T18:14:51;6.70;53.40
22379;DHT22;11357;49.990;7.370;2023-03-01T18:17:24;6.70;53.50
22379;DHT22;11357;49.990;7.370;2023-03-01T18:19:50;6.70;53.60
22379;DHT22;11357;49.990;7.370;2023-03-01T18:22:16;6.70;53.60
22379;DHT22;11357;49.990;7.370;2023-03-01T18:24:42;6.60;53.60
22379;DHT22;11357;49.990;7.370;2023-03-01T18:27:08;6.60;53.60
22379;DHT22;11357;49.990;7.370;2023-03-01T18:29:35;6.60;53.70
22379;DHT22;11357;49.990;7.370;2023-03-01T18:32:01;6.50;53.50
22379;DHT22;11357;49.990;7.370;2023-03-01T18:34:26;6.50;53.50
22379;DHT22;11357;49.990;7.370;2023-03-01T18:36:53;6.50;53.60
22379;DHT22;11357;49.990;7.370;2023-03-01T18:39:21;6.40;53.50
22379;DHT22;11357;49.990;7.370;2023-03-01T18:41:47;6.40;53.40
22379;DHT22;11357;49.990;7.370;2023-03-01T18:44:13;6.40;53.40
22379;DHT22;11357;49.990;7.370;2023-03-01T18:46:39;6.40;53.40
22379;DHT22;11357;49.990;7.370;2023-03-01T18:57:01;6.30;53.60
22379;DHT22;11357;49.990;7.370;2023-03-01T18:59:27;6.20;53.70
22379;DHT22;11357;49.990;7.370;2023-03-01T19:01:54;6.20;53.70
22379;DHT22;11357;49.990;7.370;2023-03-01T19:04:19;6.20;53.80
22379;DHT22;11357;49.990;7.370;2023-03-01T19:06:45;6.10;53.80
22379;DHT22;11357;49.990;7.370;2023-03-01T19:09:11;6.10;53.90
22379;DHT22;11357;49.990;7.370;2023-03-01T19:11:37;6.10;53.90
22379;DHT22;11357;49.990;7.370;2023-03-01T19:14:03;6.10;53.90
22379;DHT22;11357;49.990;7.370;2023-03-01T19:16:30;6.10;54.00
22379;DHT22;11357;49.990;7.370;2023-03-01T19:18:58;6.00;54.00
22379;DHT22;11357;49.990;7.370;2023-03-01T19:21:27;6.00;53.90
22379;DHT22;11357;49.990;7.370;2023-03-01T19:23:53;6.00;54.00
22379;DHT22;11357;49.990;7.370;2023-03-01T19:26:22;6.00;54.00
22379;DHT22;11357;49.990;7.370;2023-03-01T19:28:48;6.00;54.20
22379;DHT22;11357;49.990;7.370;2023-03-01T19:31:16;6.00;54.10
22379;DHT22;11357;49.990;7.370;2023-03-01T19:33:42;6.00;54.20
22379;DHT22;11357;49.990;7.370;2023-03-01T19:36:10;5.90;54.20
22379;DHT22;11357;49.990;7.370;2023-03-01T19:38:37;5.90;54.20
22379;DHT22;11357;49.990;7.370;2023-03-01T19:41:09;5.90;54.20
22379;DHT22;11357;49.990;7.370;2023-03-01T19:43:35;5.90;54.30
22379;DHT22;11357;49.990;7.370;2023-03-01T19:46:01;5.90;54.30
22379;DHT22;11357;49.990;7.370;2023-03-01T19:48:27;5.80;54.30
22379;DHT22;11357;49.990;7.370;2023-03-01T19:50:53;5.80;54.30
22379;DHT22;11357;49.990;7.370;2023-03-01T19:53:19;5.70;54.30
22379;DHT22;11357;49.990;7.370;2023-03-01T19:55:45;5.70;54.40
22379;DHT22;11357;49.990;7.370;2023-03-01T19:58:11;5.70;54.40
22379;DHT22;11357;49.990;7.370;2023-03-01T20:00:38;5.70;54.40
22379;DHT22;11357;49.990;7.370;2023-03-01T20:03:05;5.60;54.40